createdAt,value
2023-05-06T00:01:47.948Z,72.02
2023-05-06T00:04:16.063Z,71.88
2023-05-06T00:06:43.621Z,72.02
2023-05-06T00:09:11.663Z,72.70
2023-05-06T00:11:39.837Z,72.29
2023-05-06T00:14:07.402Z,72.01
2023-05-06T00:16:34.989Z,73.23
2023-05-06T00:19:02.965Z,72.37
2023-05-06T00:21:30.869Z,73.02
2023-05-06T00:23:58.531Z,72.70
2023-05-06T00:26:26.549Z,71.86
2023-05-06T00:28:56.353Z,73.22
2023-05-06T00:31:23.990Z,73.18
2023-05-06T00:33:51.938Z,73.29
2023-05-06T00:36:20.676Z,73.36
2023-05-06T00:38:49.116Z,72.99
2023-05-06T00:41:17.065Z,73.00
2023-05-06T00:43:44.629Z,73.41
2023-05-06T00:46:14.775Z,73.16
2023-05-06T00:48:44.069Z,73.36
2023-05-06T00:51:12.184Z,73.97
2023-05-06T00:53:40.865Z,74.04
2023-05-06T00:58:36.959Z,73.54
2023-05-06T01:01:05.052Z,74.27
2023-05-06T01:03:33.075Z,73.47
2023-05-06T01:06:23.460Z,73.26
2023-05-06T01:08:57.456Z,72.48
2023-05-06T01:11:35.720Z,72.16
2023-05-06T01:14:06.697Z,73.77
2023-05-06T01:16:38.340Z,74.38
2023-05-06T01:19:09.939Z,74.51
2023-05-06T01:21:39.627Z,74.28
2023-05-06T01:24:07.654Z,74.84
2023-05-06T01:26:35.285Z,74.09
2023-05-06T01:29:03.378Z,74.51
2023-05-06T01:31:41.820Z,74.23
2023-05-06T01:34:21.111Z,74.66
2023-05-06T01:37:47.872Z,75.17
2023-05-06T01:40:16.636Z,74.65
2023-05-06T01:42:48.290Z,74.93
2023-05-06T01:45:17.813Z,74.93
2023-05-06T01:47:46.868Z,75.30
2023-05-06T01:50:17.643Z,75.38
2023-05-06T01:52:45.550Z,75.79
2023-05-06T01:55:13.094Z,75.25
2023-05-06T01:57:40.732Z,74.66
2023-05-06T02:00:09.314Z,74.85
2023-05-06T02:02:39.801Z,75.19
2023-05-06T02:05:08.526Z,75.46
2023-05-06T02:07:37.061Z,73.71
2023-05-06T02:10:05.455Z,74.60
2023-05-06T02:12:34.297Z,74.08
2023-05-06T02:15:02.067Z,74.63
2023-05-06T02:17:30.080Z,73.93
2023-05-06T02:19:57.922Z,74.30
2023-05-06T02:22:25.580Z,74.98
2023-05-06T02:24:53.495Z,74.72
2023-05-06T02:27:21.408Z,73.79
2023-05-06T02:29:49.018Z,74.36
2023-05-06T02:32:17.034Z,74.74
2023-05-06T02:34:47.818Z,74.47
2023-05-06T02:37:15.519Z,75.06
2023-05-06T02:39:43.572Z,75.15
2023-05-06T02:42:14.389Z,74.87
2023-05-06T02:44:42.910Z,75.18
2023-05-06T02:47:10.875Z,75.40
2023-05-06T02:49:38.692Z,75.60
2023-05-06T02:52:06.261Z,75.92
2023-05-06T02:54:34.134Z,75.59
2023-05-06T02:57:01.805Z,75.35
2023-05-06T02:59:29.408Z,75.46
2023-05-06T03:01:57.406Z,75.55
2023-05-06T03:04:25.378Z,76.05
2023-05-06T03:06:53.047Z,75.70
2023-05-06T03:09:21.014Z,76.22
2023-05-06T03:11:49.089Z,76.27
2023-05-06T03:14:17.023Z,76.29
2023-05-06T03:16:46.028Z,76.56
2023-05-06T03:19:14.360Z,76.39
2023-05-06T03:21:42.923Z,76.41
2023-05-06T03:24:11.161Z,76.57
2023-05-06T03:26:40.334Z,76.43
2023-05-06T03:29:08.516Z,77.04
2023-05-06T03:31:37.196Z,76.91
2023-05-06T03:34:05.616Z,76.54
2023-05-06T03:36:33.515Z,76.48
2023-05-06T03:39:01.402Z,76.07
2023-05-06T03:41:30.233Z,75.11
2023-05-06T03:43:58.561Z,75.54
2023-05-06T03:46:26.922Z,76.17
2023-05-06T03:48:55.081Z,75.36
2023-05-06T03:51:23.678Z,75.09
2023-05-06T03:53:52.992Z,75.05
2023-05-06T03:56:22.575Z,75.38
2023-05-06T03:58:50.861Z,75.07
2023-05-06T04:01:19.178Z,75.97
2023-05-06T04:03:47.330Z,76.31
2023-05-06T04:06:15.148Z,75.85
2023-05-06T04:08:44.127Z,76.38
2023-05-06T04:11:12.292Z,76.89
2023-05-06T04:13:40.264Z,75.71
2023-05-06T04:16:08.555Z,76.25
2023-05-06T04:18:37.341Z,75.82
2023-05-06T04:21:05.635Z,75.24
2023-05-06T04:23:34.091Z,75.33
2023-05-06T04:26:01.927Z,74.03
2023-05-06T04:28:31.139Z,74.79
2023-05-06T04:30:59.369Z,75.81
2023-05-06T04:33:29.061Z,75.54
2023-05-06T04:35:58.059Z,74.08
2023-05-06T04:38:26.396Z,74.83
2023-05-06T04:40:55.027Z,75.68
2023-05-06T04:43:22.798Z,75.11
2023-05-06T04:45:51.996Z,74.93
2023-05-06T04:48:21.355Z,75.72
2023-05-06T04:50:50.011Z,76.01
2023-05-06T04:53:18.665Z,75.31
2023-05-06T04:55:47.470Z,75.29
2023-05-06T04:58:16.021Z,74.52
2023-05-06T05:00:44.525Z,73.30
2023-05-06T05:03:12.862Z,72.53
2023-05-06T05:05:40.805Z,71.79
2023-05-06T05:08:11.135Z,72.10
2023-05-06T05:10:41.789Z,72.14
2023-05-06T05:13:10.229Z,71.81
2023-05-06T05:15:38.313Z,71.74
2023-05-06T05:18:06.730Z,71.92
2023-05-06T05:20:35.404Z,71.37
2023-05-06T05:23:04.558Z,71.03
2023-05-06T05:25:33.186Z,71.65
2023-05-06T05:28:01.312Z,70.53
2023-05-06T05:30:29.226Z,70.74
2023-05-06T05:32:58.112Z,69.82
2023-05-06T05:35:25.871Z,69.65
2023-05-06T05:37:54.814Z,69.24
2023-05-06T05:40:23.812Z,70.62
2023-05-06T05:42:51.838Z,68.89
2023-05-06T05:45:20.360Z,69.00
2023-05-06T05:47:48.463Z,70.22
2023-05-06T05:50:16.767Z,71.19
2023-05-06T05:52:44.826Z,71.34
2023-05-06T05:55:13.195Z,70.30
2023-05-06T05:57:42.239Z,70.23
2023-05-06T06:00:12.271Z,71.21
2023-05-06T06:02:44.926Z,71.03
2023-05-06T06:05:13.928Z,69.84
2023-05-06T06:07:41.978Z,70.21
2023-05-06T06:10:10.822Z,71.42
2023-05-06T06:12:41.370Z,70.79
2023-05-06T06:15:09.999Z,69.87
2023-05-06T06:17:38.605Z,70.24
2023-05-06T06:20:07.633Z,69.15
2023-05-06T06:22:35.400Z,68.48
2023-05-06T06:25:03.484Z,67.67
2023-05-06T06:27:34.989Z,67.23
2023-05-06T06:30:07.113Z,68.34
2023-05-06T06:32:35.018Z,68.05
2023-05-06T06:35:03.050Z,67.34
2023-05-06T06:37:30.877Z,66.71
2023-05-06T06:40:01.588Z,67.15
2023-05-06T06:42:29.715Z,65.85
2023-05-06T06:44:58.131Z,65.47
2023-05-06T06:47:25.895Z,65.22
2023-05-06T06:49:53.874Z,64.98
2023-05-06T06:52:24.305Z,63.74
2023-05-06T06:54:51.953Z,64.10
2023-05-06T06:57:20.599Z,63.99
2023-05-06T06:59:48.468Z,62.51
2023-05-06T07:02:16.168Z,63.43
2023-05-06T07:04:44.354Z,63.01
2023-05-06T07:07:12.287Z,62.15
2023-05-06T07:09:40.336Z,60.99
2023-05-06T07:12:08.392Z,62.37
2023-05-06T07:14:36.245Z,61.65
2023-05-06T07:17:04.328Z,62.42
2023-05-06T07:19:32.540Z,62.43
2023-05-06T07:22:00.538Z,61.86
2023-05-06T07:24:28.607Z,61.06
2023-05-06T07:26:56.620Z,61.64
2023-05-06T07:29:24.317Z,60.78
2023-05-06T07:31:52.006Z,61.20
2023-05-06T07:34:20.035Z,58.38
2023-05-06T07:36:47.702Z,59.81
2023-05-06T07:39:15.538Z,59.97
2023-05-06T07:41:43.723Z,59.94
2023-05-06T07:44:11.620Z,58.93
2023-05-06T07:46:39.329Z,59.48
2023-05-06T07:49:07.315Z,58.18
2023-05-06T07:51:35.135Z,57.71
2023-05-06T07:54:03.017Z,58.44
2023-05-06T07:56:30.942Z,56.00
2023-05-06T07:58:58.787Z,55.09
2023-05-06T08:01:27.588Z,54.30
2023-05-06T08:03:55.571Z,54.40
2023-05-06T08:06:23.439Z,53.99
2023-05-06T08:08:51.106Z,54.44
2023-05-06T08:11:19.501Z,53.97
2023-05-06T08:13:47.238Z,55.03
2023-05-06T08:16:14.980Z,54.13
2023-05-06T08:18:43.043Z,53.64
2023-05-06T08:21:10.618Z,54.60
2023-05-06T08:23:38.321Z,54.56
2023-05-06T08:26:06.174Z,54.71
2023-05-06T08:28:33.977Z,56.07
2023-05-06T08:31:01.683Z,55.23
2023-05-06T08:33:29.655Z,55.18
2023-05-06T08:35:58.680Z,55.32
2023-05-06T08:38:27.058Z,54.90
2023-05-06T08:40:54.993Z,54.34
2023-05-06T08:43:24.624Z,53.84
2023-05-06T08:45:52.399Z,53.14
2023-05-06T08:48:20.459Z,52.68
2023-05-06T08:50:49.038Z,51.12
2023-05-06T08:53:16.868Z,51.50
2023-05-06T08:55:45.555Z,51.36
2023-05-06T08:58:13.934Z,48.97
2023-05-06T09:00:46.710Z,49.45
2023-05-06T09:03:14.849Z,48.05
2023-05-06T09:05:42.939Z,49.10
2023-05-06T09:08:10.811Z,49.83
2023-05-06T09:10:45.995Z,50.02
2023-05-06T09:13:15.035Z,50.16
2023-05-06T09:15:48.362Z,48.57
2023-05-06T09:18:16.592Z,49.52
2023-05-06T09:20:46.212Z,47.55
2023-05-06T09:23:15.535Z,47.98
2023-05-06T09:25:44.658Z,48.44
2023-05-06T09:28:13.756Z,48.79
2023-05-06T09:30:42.951Z,49.25
2023-05-06T09:33:11.113Z,48.13
2023-05-06T09:35:42.900Z,47.31
2023-05-06T09:38:10.772Z,45.98
2023-05-06T09:40:39.263Z,46.55
2023-05-06T09:43:07.087Z,47.30
2023-05-06T09:45:35.445Z,46.19
2023-05-06T09:48:03.337Z,45.45
2023-05-06T09:50:32.452Z,44.29
2023-05-06T09:53:00.483Z,43.20
2023-05-06T09:55:28.843Z,41.14
2023-05-06T09:57:58.129Z,41.22
2023-05-06T10:00:26.122Z,39.53
2023-05-06T10:02:54.902Z,38.59
2023-05-06T10:05:23.024Z,38.94
2023-05-06T10:07:52.535Z,37.81
2023-05-06T10:10:21.454Z,38.16
2023-05-06T10:12:50.117Z,38.12
2023-05-06T10:15:17.810Z,38.64
2023-05-06T10:17:45.754Z,38.80
2023-05-06T10:20:14.069Z,37.58
2023-05-06T10:22:51.014Z,36.84
2023-05-06T10:25:37.776Z,38.01
2023-05-06T10:28:08.609Z,39.64
2023-05-06T10:30:41.166Z,40.33
2023-05-06T10:33:10.392Z,41.62
2023-05-06T10:35:41.059Z,39.66
2023-05-06T10:38:20.150Z,40.32
2023-05-06T10:40:49.432Z,40.40
2023-05-06T10:43:24.958Z,41.01
2023-05-06T10:46:01.684Z,41.58
2023-05-06T10:48:30.593Z,40.36
2023-05-06T10:51:16.366Z,40.22
2023-05-06T10:54:03.410Z,40.62
2023-05-06T10:56:50.357Z,35.76
2023-05-06T10:59:23.924Z,37.40
2023-05-06T11:02:02.108Z,35.42
2023-05-06T11:04:30.273Z,36.65
2023-05-06T11:07:12.081Z,36.36
2023-05-06T11:10:01.763Z,35.44
2023-05-06T11:12:51.692Z,36.11
2023-05-06T11:15:19.732Z,36.75
2023-05-06T11:17:47.380Z,34.82
2023-05-06T11:20:25.567Z,33.34
2023-05-06T11:22:53.853Z,32.75
2023-05-06T11:25:50.850Z,33.45
2023-05-06T11:28:18.982Z,31.19
2023-05-06T11:30:54.701Z,32.43
2023-05-06T11:33:24.383Z,31.66
2023-05-06T11:35:52.933Z,30.48
2023-05-06T11:38:20.748Z,30.69
2023-05-06T11:40:49.294Z,32.70
2023-05-06T11:43:16.964Z,31.11
2023-05-06T11:45:46.568Z,30.60
2023-05-06T11:48:15.175Z,30.87
2023-05-06T11:50:47.066Z,30.75
2023-05-06T11:53:20.532Z,30.32
2023-05-06T11:55:49.195Z,28.48
2023-05-06T11:58:18.676Z,28.27
2023-05-06T12:00:51.447Z,28.31
2023-05-06T12:03:20.951Z,28.59
2023-05-06T12:05:49.825Z,29.85
2023-05-06T12:08:40.860Z,30.38
2023-05-06T12:11:09.844Z,31.56
2023-05-06T12:13:41.328Z,30.89
2023-05-06T12:16:09.950Z,31.39
2023-05-06T12:18:37.913Z,30.09
2023-05-06T12:21:05.597Z,31.69
2023-05-06T12:23:33.512Z,30.47
2023-05-06T12:26:01.722Z,31.07
2023-05-06T12:28:30.632Z,31.61
2023-05-06T12:30:58.832Z,30.83
2023-05-06T12:33:26.765Z,32.73
2023-05-06T12:35:54.602Z,32.61
2023-05-06T12:38:22.580Z,34.22
2023-05-06T12:40:54.318Z,33.83
2023-05-06T12:43:32.077Z,35.57
2023-05-06T12:46:07.463Z,35.29
2023-05-06T12:48:35.872Z,35.08
2023-05-06T12:51:20.418Z,35.10
2023-05-06T12:53:48.590Z,35.61
2023-05-06T12:56:16.180Z,35.37
2023-05-06T12:58:44.070Z,35.31
2023-05-06T13:01:11.988Z,36.32
2023-05-06T13:03:39.660Z,35.95
2023-05-06T13:06:07.607Z,36.07
2023-05-06T13:08:35.510Z,37.12
2023-05-06T13:11:03.308Z,37.12
2023-05-06T13:13:30.976Z,37.46
2023-05-06T13:15:59.443Z,37.52
2023-05-06T13:18:27.286Z,36.39
2023-05-06T13:20:55.836Z,36.00
2023-05-06T13:23:23.813Z,35.31
2023-05-06T13:26:03.479Z,36.19
2023-05-06T13:28:33.211Z,36.09
2023-05-06T13:31:01.210Z,37.24
2023-05-06T13:33:28.906Z,37.08
2023-05-06T13:35:57.183Z,37.67
2023-05-06T13:38:24.940Z,37.38
2023-05-06T13:40:53.557Z,37.23
2023-05-06T13:43:22.592Z,37.64
2023-05-06T13:45:50.468Z,38.38
2023-05-06T13:48:18.250Z,38.33
2023-05-06T13:50:46.697Z,38.50
2023-05-06T13:53:15.163Z,37.63
2023-05-06T13:55:57.883Z,37.82
2023-05-06T13:58:25.659Z,38.31
2023-05-06T14:00:53.293Z,38.82
2023-05-06T14:03:21.457Z,41.32
2023-05-06T14:05:49.202Z,39.95
2023-05-06T14:08:17.114Z,38.33
2023-05-06T14:10:45.670Z,39.00
2023-05-06T14:13:13.770Z,41.32
2023-05-06T14:15:41.616Z,42.22
2023-05-06T14:18:09.707Z,42.18
2023-05-06T14:20:37.448Z,40.78
2023-05-06T14:23:05.636Z,40.69
2023-05-06T14:25:33.492Z,41.52
2023-05-06T14:28:01.130Z,42.96
2023-05-06T14:30:28.752Z,45.69
2023-05-06T14:32:56.849Z,46.11
2023-05-06T14:35:24.529Z,47.32
2023-05-06T14:37:55.300Z,47.44
2023-05-06T14:40:23.669Z,49.52
2023-05-06T14:42:51.383Z,50.05
2023-05-06T14:45:19.581Z,50.27
2023-05-06T14:47:47.637Z,51.42
2023-05-06T14:50:15.496Z,51.22
2023-05-06T14:52:43.340Z,51.69
2023-05-06T14:55:11.785Z,52.30
2023-05-06T14:57:39.675Z,50.55
2023-05-06T15:00:08.974Z,50.95
2023-05-06T15:02:37.306Z,52.12
2023-05-06T15:05:05.531Z,52.23
2023-05-06T15:07:33.223Z,52.86
2023-05-06T15:10:01.490Z,54.36
2023-05-06T15:12:29.304Z,54.27
2023-05-06T15:14:57.190Z,54.12
2023-05-06T15:17:25.677Z,55.55
2023-05-06T15:19:53.916Z,55.85
2023-05-06T15:22:21.565Z,57.44
2023-05-06T15:24:49.737Z,58.15
2023-05-06T15:27:17.336Z,58.62
2023-05-06T15:29:44.958Z,59.97
2023-05-06T15:32:12.894Z,60.09
2023-05-06T15:34:40.596Z,60.38
2023-05-06T15:37:08.187Z,63.10
2023-05-06T15:39:36.852Z,65.43
2023-05-06T15:42:04.804Z,65.92
2023-05-06T15:44:33.027Z,66.56
2023-05-06T15:47:01.142Z,63.37
2023-05-06T15:52:01.026Z,62.14
2023-05-06T15:54:29.414Z,62.12
2023-05-06T15:56:56.977Z,62.67
2023-05-06T15:59:24.684Z,62.00
2023-05-06T16:04:24.080Z,62.25
2023-05-06T16:06:52.322Z,61.65
2023-05-06T16:09:20.032Z,61.53
2023-05-06T16:11:48.093Z,62.30
2023-05-06T16:14:15.962Z,62.61
2023-05-06T16:16:43.918Z,62.69
2023-05-06T16:19:12.087Z,62.11
2023-05-06T16:21:39.794Z,62.17
2023-05-06T16:24:07.506Z,61.81
2023-05-06T16:26:35.439Z,61.22
2023-05-06T16:29:03.188Z,60.70
2023-05-06T16:31:32.268Z,61.12
2023-05-06T16:34:00.288Z,60.54
2023-05-06T16:36:27.978Z,60.25
2023-05-06T16:38:55.721Z,59.75
2023-05-06T16:41:23.668Z,58.86
2023-05-06T16:43:51.680Z,58.31
2023-05-06T16:46:20.565Z,57.75
2023-05-06T16:48:50.673Z,57.93
2023-05-06T16:51:18.595Z,58.39
2023-05-06T16:53:46.449Z,59.62
2023-05-06T16:56:14.505Z,60.26
2023-05-06T16:58:42.915Z,60.78
2023-05-06T17:01:10.623Z,61.48
2023-05-06T17:03:38.748Z,60.81
2023-05-06T17:06:07.021Z,61.87
2023-05-06T17:08:37.118Z,60.25
2023-05-06T17:11:06.706Z,60.34
2023-05-06T17:13:35.184Z,61.36
2023-05-06T17:16:02.822Z,61.81
2023-05-06T17:18:30.890Z,61.88
2023-05-06T17:20:59.001Z,61.04
2023-05-06T17:23:26.617Z,61.35
2023-05-06T17:25:55.869Z,62.07
2023-05-06T17:28:23.696Z,62.28
2023-05-06T17:30:51.395Z,62.47
2023-05-06T17:33:19.354Z,63.08
2023-05-06T17:35:47.046Z,62.87
2023-05-06T17:38:14.827Z,62.94
2023-05-06T17:40:43.318Z,62.57
2023-05-06T17:43:10.975Z,63.24
2023-05-06T17:45:40.378Z,62.74
2023-05-06T17:48:08.454Z,62.83
2023-05-06T17:50:36.336Z,63.48
2023-05-06T17:53:04.209Z,64.43
2023-05-06T17:55:32.243Z,64.52
2023-05-06T17:57:59.999Z,65.20
2023-05-06T18:00:27.829Z,64.81
2023-05-06T18:02:56.108Z,65.22
2023-05-06T18:05:23.964Z,66.24
2023-05-06T18:07:54.661Z,66.60
2023-05-06T18:10:22.668Z,65.55
2023-05-06T18:12:50.437Z,66.09
2023-05-06T18:15:18.036Z,66.95
2023-05-06T18:17:46.212Z,65.82
2023-05-06T18:20:14.193Z,66.97
2023-05-06T18:22:42.106Z,66.90
2023-05-06T18:25:10.234Z,67.28
2023-05-06T18:27:37.990Z,67.10
2023-05-06T18:30:06.245Z,66.04
2023-05-06T18:32:35.003Z,68.29
2023-05-06T18:35:02.788Z,68.87
2023-05-06T18:37:33.193Z,69.01
2023-05-06T18:40:01.077Z,69.25
2023-05-06T18:42:28.828Z,68.24
2023-05-06T18:44:56.409Z,68.11
2023-05-06T18:47:24.433Z,67.46
2023-05-06T18:49:52.456Z,67.94
2023-05-06T18:52:20.067Z,68.27
2023-05-06T18:54:48.131Z,67.74
2023-05-06T18:57:15.865Z,68.42
2023-05-06T18:59:44.256Z,68.46
2023-05-06T19:02:12.086Z,68.29
2023-05-06T19:04:40.013Z,68.55
2023-05-06T19:07:07.912Z,69.30
2023-05-06T19:09:35.885Z,69.37
2023-05-06T19:12:06.781Z,69.65
2023-05-06T19:14:35.041Z,69.50
2023-05-06T19:17:03.552Z,69.89
2023-05-06T19:19:31.563Z,70.07
2023-05-06T19:21:59.305Z,70.75
2023-05-06T19:24:29.595Z,70.44
2023-05-06T19:26:57.263Z,70.38
2023-05-06T19:29:24.928Z,70.59
2023-05-06T19:31:52.941Z,71.21
2023-05-06T19:34:20.614Z,71.67
2023-05-06T19:36:50.477Z,72.24
2023-05-06T19:39:18.540Z,72.03
2023-05-06T19:41:46.074Z,72.88
2023-05-06T19:44:14.188Z,72.73
2023-05-06T19:46:43.647Z,71.72
2023-05-06T19:49:13.033Z,71.92
2023-05-06T19:51:41.074Z,72.80
2023-05-06T19:54:09.474Z,73.27
2023-05-06T19:56:37.538Z,72.92
2023-05-06T19:59:05.343Z,72.85
2023-05-06T20:01:33.252Z,73.52
2023-05-06T20:04:01.962Z,73.92
2023-05-06T20:06:29.946Z,74.06
2023-05-06T20:08:58.516Z,73.71
2023-05-06T20:11:26.615Z,73.52
2023-05-06T20:13:57.255Z,73.29
2023-05-06T20:16:24.980Z,72.73
2023-05-06T20:18:53.568Z,73.16
2023-05-06T20:21:21.480Z,75.56
2023-05-06T20:23:49.452Z,75.00
2023-05-06T20:26:17.368Z,74.78
2023-05-06T20:28:45.037Z,74.85
2023-05-06T20:31:12.809Z,75.73
2023-05-06T20:33:43.345Z,74.51
2023-05-06T20:36:10.944Z,74.45
2023-05-06T20:38:38.574Z,74.37
2023-05-06T20:41:06.402Z,75.47
2023-05-06T20:43:36.811Z,75.46
2023-05-06T20:46:04.587Z,75.44
2023-05-06T20:48:32.732Z,76.20
2023-05-06T20:51:00.534Z,75.46
2023-05-06T20:53:28.138Z,75.98
2023-05-06T20:55:56.162Z,74.77
2023-05-06T20:58:24.012Z,75.58
2023-05-06T21:00:51.649Z,75.94
2023-05-06T21:03:19.834Z,75.54
2023-05-06T21:05:47.688Z,76.04
2023-05-06T21:08:16.310Z,75.25
2023-05-06T21:10:44.664Z,74.70
2023-05-06T21:13:12.319Z,74.09
2023-05-06T21:15:39.945Z,75.87
2023-05-06T21:18:07.951Z,74.74
2023-05-06T21:20:35.607Z,76.51
2023-05-06T21:23:03.242Z,76.83
2023-05-06T21:25:31.191Z,77.33
2023-05-06T21:27:58.900Z,74.83
2023-05-06T21:30:26.725Z,74.72
2023-05-06T21:32:54.758Z,75.06
2023-05-06T21:35:22.483Z,75.19
2023-05-06T21:37:50.651Z,75.02
2023-05-06T21:40:18.685Z,75.08
2023-05-06T21:42:46.354Z,74.77
2023-05-06T21:45:14.407Z,75.29
2023-05-06T21:47:43.030Z,75.66
2023-05-06T21:50:11.468Z,75.26
2023-05-06T21:52:39.360Z,74.61
2023-05-06T21:55:08.229Z,74.39
2023-05-06T21:57:36.036Z,74.42
2023-05-06T22:00:04.806Z,76.15
2023-05-06T22:02:35.991Z,76.31
2023-05-06T22:05:05.424Z,76.40
2023-05-06T22:07:33.104Z,76.75
2023-05-06T22:10:00.819Z,76.97
2023-05-06T22:12:28.925Z,77.84
2023-05-06T22:14:56.607Z,78.17
2023-05-06T22:17:24.296Z,78.31
2023-05-06T22:19:52.241Z,77.47
2023-05-06T22:22:20.412Z,77.64
2023-05-06T22:24:47.951Z,77.75
2023-05-06T22:27:15.787Z,78.11
2023-05-06T22:29:43.555Z,78.35
2023-05-06T22:32:11.190Z,77.76
2023-05-06T22:34:39.153Z,76.97
2023-05-06T22:37:10.590Z,78.84
2023-05-06T22:39:38.221Z,78.88
2023-05-06T22:42:06.164Z,78.71
2023-05-06T22:44:34.496Z,78.99
2023-05-06T22:47:02.063Z,79.75
2023-05-06T22:49:30.090Z,78.86
2023-05-06T22:51:57.820Z,80.21
2023-05-06T22:54:25.671Z,80.39
2023-05-06T22:56:53.790Z,80.43
2023-05-06T22:59:21.396Z,79.94
2023-05-06T23:01:49.602Z,79.90
2023-05-06T23:04:17.806Z,80.39
2023-05-06T23:06:45.602Z,80.80
2023-05-06T23:09:13.217Z,80.41
2023-05-06T23:11:41.788Z,80.83
2023-05-06T23:14:09.467Z,81.16
2023-05-06T23:16:37.216Z,81.70
2023-05-06T23:19:05.372Z,82.00
2023-05-06T23:21:33.320Z,81.42
2023-05-06T23:24:01.286Z,81.18
2023-05-06T23:26:29.312Z,81.06
2023-05-06T23:28:57.072Z,81.02
2023-05-06T23:31:24.712Z,82.37
2023-05-06T23:33:53.110Z,82.95
2023-05-06T23:36:20.701Z,82.55
2023-05-06T23:38:48.989Z,81.27
2023-05-06T23:41:17.121Z,81.75
2023-05-06T23:43:44.825Z,81.87
2023-05-06T23:46:12.973Z,82.16
2023-05-06T23:48:41.046Z,81.93
2023-05-06T23:51:08.656Z,81.97
2023-05-06T23:53:36.335Z,82.87
2023-05-06T23:56:04.656Z,82.69
2023-05-06T23:58:32.428Z,82.66
